Time;durP1;ratioP1;P1;durP2;ratioP2;P2;SDS_P1;SDS_P2;PMS_P1;PMS_P2;Temp;Humidity;BMP_temperature;BMP_pressure;BME280_temperature;BME280_humidity;BME280_pressure;Samples;Min_cycle;Max_cycle;Signal;HPM_P1;HPM_P2
2023/10/11 00:00:52;;;;;;;10.27;4.85;;;19.00;55.50;;;;;;5040664;28;20060;-42
2023/10/11 00:03:32;;;;;;;10.93;5.05;;;19.00;55.50;;;;;;5038044;28;20503;-47
2023/10/11 00:06:04;;;;;;;11.30;4.85;;;19.00;55.40;;;;;;5039914;28;20053;-47
2023/10/11 00:08:39;;;;;;;11.70;4.85;;;19.00;55.40;;;;;;5040541;28;20056;-42
2023/10/11 00:11:08;;;;;;;10.50;4.72;;;19.00;55.40;;;;;;5039303;28;20493;-44
2023/10/11 00:13:36;;;;;;;10.40;4.88;;;19.00;55.40;;;;;;5040996;28;20060;-42
2023/10/11 00:16:08;;;;;;;9.00;4.60;;;19.00;55.40;;;;;;5040098;28;20075;-42
2023/10/11 00:18:36;;;;;;;11.02;4.80;;;18.90;55.40;;;;;;5039815;28;20057;-42
2023/10/11 00:21:10;;;;;;;11.23;4.97;;;18.90;55.50;;;;;;5038322;28;20049;-42
2023/10/11 00:23:43;;;;;;;11.70;5.40;;;18.90;55.50;;;;;;5038888;28;20477;-42
2023/10/11 00:26:14;;;;;;;10.20;4.80;;;18.90;55.60;;;;;;5040473;28;20053;-42
2023/10/11 00:28:43;;;;;;;7.95;4.82;;;18.90;55.60;;;;;;5038737;28;20056;-44
2023/10/11 00:31:18;;;;;;;10.02;4.72;;;18.90;55.60;;;;;;5038351;28;20060;-46
2023/10/11 00:33:46;;;;;;;11.63;4.97;;;18.90;55.60;;;;;;5038300;28;20053;-46
2023/10/11 00:36:16;;;;;;;9.25;4.43;;;18.90;55.60;;;;;;5040782;28;20055;-43
2023/10/11 00:38:48;;;;;;;9.88;4.75;;;18.90;55.70;;;;;;5040514;28;20056;-44
2023/10/11 00:41:18;;;;;;;13.30;4.80;;;18.80;55.50;;;;;;5039482;28;20059;-42
2023/10/11 00:43:49;;;;;;;11.10;4.70;;;18.80;55.50;;;;;;5038646;28;20055;-42
2023/10/11 00:46:19;;;;;;;8.52;4.15;;;18.80;55.30;;;;;;5040046;28;20049;-42
2023/10/11 00:48:59;;;;;;;9.80;4.65;;;18.90;55.30;;;;;;5038620;28;20686;-43
2023/10/11 00:51:30;;;;;;;14.55;5.53;;;18.80;55.10;;;;;;5038497;28;20064;-44
2023/10/11 00:53:58;;;;;;;11.30;4.07;;;18.90;55.10;;;;;;5039495;28;20049;-42
2023/10/11 00:56:31;;;;;;;8.73;4.53;;;18.90;55.00;;;;;;5037740;28;20429;-46
2023/10/11 00:58:59;;;;;;;11.75;4.35;;;19.00;54.90;;;;;;5039223;28;20056;-46
2023/10/11 01:01:26;;;;;;;8.88;3.83;;;19.00;54.90;;;;;;5036573;28;20477;-46
2023/10/11 01:03:55;;;;;;;15.68;4.70;;;19.00;54.90;;;;;;5037751;28;20350;-48
2023/10/11 01:06:25;;;;;;;11.75;4.20;;;19.00;54.70;;;;;;5037699;28;20493;-44
2023/10/11 01:08:54;;;;;;;10.30;4.03;;;19.10;54.60;;;;;;5040394;28;21526;-45
2023/10/11 01:11:22;;;;;;;9.88;4.10;;;19.20;54.50;;;;;;5038166;28;20055;-47
2023/10/11 01:13:51;;;;;;;12.15;4.45;;;19.20;54.50;;;;;;5037867;28;20049;-44
2023/10/11 01:16:24;;;;;;;9.73;4.43;;;19.20;54.40;;;;;;5038767;28;20048;-43
2023/10/11 01:18:51;;;;;;;12.30;4.18;;;19.30;54.30;;;;;;5038307;28;20433;-43
2023/10/11 01:21:20;;;;;;;9.63;4.07;;;19.30;54.20;;;;;;5037616;28;20497;-45
2023/10/11 01:23:48;;;;;;;11.38;4.13;;;19.30;54.30;;;;;;5038815;28;20068;-43
2023/10/11 01:26:15;;;;;;;11.52;4.30;;;19.30;54.30;;;;;;5040994;28;20489;-51
2023/10/11 01:28:45;;;;;;;10.68;4.68;;;19.40;54.30;;;;;;5039146;28;20053;-46
2023/10/11 01:31:16;;;;;;;11.43;4.65;;;19.40;54.30;;;;;;5035761;28;20057;-47
2023/10/11 01:33:46;;;;;;;14.82;4.68;;;19.40;54.20;;;;;;5036698;28;20041;-49
2023/10/11 01:36:17;;;;;;;14.43;5.38;;;19.40;54.20;;;;;;5038625;28;20513;-45
2023/10/11 01:38:47;;;;;;;9.73;4.80;;;19.40;54.20;;;;;;5039980;28;20068;-47
2023/10/11 01:41:16;;;;;;;9.43;4.75;;;19.30;54.30;;;;;;5042128;28;20060;-49
2023/10/11 01:43:46;;;;;;;13.57;5.45;;;19.30;54.30;;;;;;5044597;28;20060;-47
2023/10/11 01:46:17;;;;;;;11.20;4.85;;;19.30;54.30;;;;;;5043902;28;20520;-47
2023/10/11 01:48:45;;;;;;;10.82;5.20;;;19.30;54.40;;;;;;5043089;28;20048;-47
2023/10/11 01:51:15;;;;;;;13.32;5.28;;;19.20;54.40;;;;;;5040914;28;20515;-46
2023/10/11 01:53:44;;;;;;;12.98;4.70;;;19.20;54.40;;;;;;5042211;28;20485;-48
2023/10/11 01:56:13;;;;;;;9.82;4.93;;;19.20;54.40;;;;;;5044331;28;20090;-46
2023/10/11 01:58:42;;;;;;;12.20;5.05;;;19.20;54.50;;;;;;5045452;28;20056;-47
2023/10/11 02:01:21;;;;;;;17.27;4.90;;;19.20;54.50;;;;;;5044720;28;20497;-46
2023/10/11 02:03:53;;;;;;;10.57;4.70;;;19.10;54.60;;;;;;5044103;28;20504;-46
2023/10/11 02:06:21;;;;;;;9.80;4.35;;;19.10;54.50;;;;;;5044444;28;20053;-45
2023/10/11 02:08:50;;;;;;;16.08;4.15;;;19.10;54.50;;;;;;5044688;28;20048;-45
2023/10/11 02:11:23;;;;;;;14.93;4.63;;;19.10;54.40;;;;;;5044107;28;20052;-47
2023/10/11 02:13:50;;;;;;;11.48;4.82;;;19.10;54.30;;;;;;5044493;28;20100;-47
2023/10/11 02:16:18;;;;;;;10.30;4.85;;;19.10;54.30;;;;;;5045167;28;20057;-45
2023/10/11 02:18:49;;;;;;;13.93;4.53;;;19.10;54.20;;;;;;5043753;28;20053;-48
2023/10/11 02:21:17;;;;;;;13.45;5.30;;;19.10;54.30;;;;;;5041995;28;20057;-45
2023/10/11 02:23:45;;;;;;;9.50;4.57;;;19.10;54.20;;;;;;5043544;28;20508;-47
2023/10/11 02:26:14;;;;;;;10.90;4.75;;;19.10;54.20;;;;;;5038259;28;20052;-47
2023/10/11 02:28:43;;;;;;;10.93;4.93;;;19.20;54.20;;;;;;5040495;28;20572;-46
2023/10/11 02:31:13;;;;;;;12.98;4.72;;;19.20;54.00;;;;;;5037905;28;20053;-47
2023/10/11 02:33:41;;;;;;;14.52;4.90;;;19.20;54.00;;;;;;5040964;28;20543;-44
2023/10/11 02:36:09;;;;;;;10.65;4.47;;;19.20;54.00;;;;;;5042914;28;20556;-50
2023/10/11 02:38:40;;;;;;;15.30;5.18;;;19.20;53.80;;;;;;5043722;28;20061;-48
2023/10/11 02:41:07;;;;;;;10.93;4.43;;;19.30;53.80;;;;;;5041933;28;20053;-46
2023/10/11 02:43:47;;;;;;;11.27;4.88;;;19.30;53.80;;;;;;5038833;28;20056;-47
2023/10/11 02:46:16;;;;;;;16.33;4.90;;;19.30;53.90;;;;;;5040906;28;20053;-46
2023/10/11 02:48:46;;;;;;;10.60;4.35;;;19.40;53.70;;;;;;5039370;28;20045;-47
2023/10/11 02:51:16;;;;;;;15.23;5.05;;;19.40;53.70;;;;;;5039205;28;20056;-45
2023/10/11 02:53:44;;;;;;;10.52;4.38;;;19.40;53.70;;;;;;5040416;28;20049;-48
2023/10/11 02:56:12;;;;;;;10.73;4.65;;;19.50;53.60;;;;;;5041189;28;20048;-46
2023/10/11 02:58:40;;;;;;;16.35;5.15;;;19.50;53.50;;;;;;5039734;28;20083;-48
2023/10/11 03:01:14;;;;;;;10.90;4.07;;;19.50;53.50;;;;;;5037767;28;20516;-44
2023/10/11 03:03:43;;;;;;;12.93;4.22;;;19.50;53.30;;;;;;5039722;28;20041;-45
2023/10/11 03:06:11;;;;;;;8.48;4.15;;;19.50;53.40;;;;;;5038194;28;20064;-47
2023/10/11 03:08:40;;;;;;;7.53;3.92;;;19.50;53.30;;;;;;5040381;28;20044;-44
2023/10/11 03:11:15;;;;;;;8.23;4.28;;;19.50;53.40;;;;;;5037148;28;20053;-49
2023/10/11 03:13:43;;;;;;;9.38;4.05;;;19.50;53.40;;;;;;5037562;28;20045;-46
2023/10/11 03:16:13;;;;;;;15.27;4.82;;;19.50;53.30;;;;;;5037029;28;20730;-50
2023/10/11 03:18:42;;;;;;;12.20;4.22;;;19.50;53.20;;;;;;5040872;28;20485;-48
2023/10/11 03:21:17;;;;;;;7.60;3.92;;;19.50;53.20;;;;;;5039066;28;20413;-48
2023/10/11 03:23:47;;;;;;;12.38;4.25;;;19.50;53.10;;;;;;5037870;28;20053;-48
2023/10/11 03:26:18;;;;;;;11.30;4.88;;;19.50;53.20;;;;;;5042822;28;20057;-44
2023/10/11 03:28:56;;;;;;;13.00;5.03;;;19.50;53.20;;;;;;5039197;28;20052;-44
2023/10/11 03:31:24;;;;;;;24.08;7.88;;;19.50;53.20;;;;;;5040604;28;20053;-47
2023/10/11 03:33:52;;;;;;;10.13;5.20;;;19.50;53.30;;;;;;5038526;28;20053;-46
2023/10/11 03:36:27;;;;;;;11.25;4.75;;;19.50;53.20;;;;;;5039960;28;20051;-49
2023/10/11 03:38:55;;;;;;;11.90;4.65;;;19.50;53.20;;;;;;5042485;28;20400;-47
2023/10/11 03:41:28;;;;;;;9.07;4.35;;;19.50;53.20;;;;;;5041209;28;20056;-45
2023/10/11 03:44:00;;;;;;;10.90;4.47;;;19.50;53.10;;;;;;5041563;28;20504;-48
2023/10/11 03:46:33;;;;;;;10.65;4.50;;;19.40;53.20;;;;;;5040666;28;20056;-47
2023/10/11 03:49:35;;;;;;;13.35;5.18;;;19.50;53.20;;;;;;5042487;28;20053;-45
2023/10/11 03:52:03;;;;;;;21.65;4.43;;;19.40;53.10;;;;;;5039197;28;20496;-45
2023/10/11 03:54:30;;;;;;;13.82;5.20;;;19.40;53.20;;;;;;5040053;28;20057;-49
2023/10/11 03:56:59;;;;;;;14.27;4.47;;;19.40;53.10;;;;;;5040469;28;20052;-48
2023/10/11 03:59:28;;;;;;;13.25;4.65;;;19.30;53.20;;;;;;5039682;28;20049;-49
2023/10/11 04:01:58;;;;;;;13.73;4.60;;;19.30;53.20;;;;;;5035736;28;20519;-47
2023/10/11 04:04:27;;;;;;;16.83;4.70;;;19.30;53.20;;;;;;5039325;28;20049;-45
2023/10/11 04:07:01;;;;;;;16.00;4.80;;;19.30;53.20;;;;;;5040161;28;20045;-46
2023/10/11 04:09:37;;;;;;;;;;;19.30;53.20;;;;;;5037937;28;20057;-45
2023/10/11 04:12:05;;;;;;;15.30;4.32;;;19.30;53.30;;;;;;5039198;28;19932;-46
2023/10/11 04:14:44;;;;;;;10.15;4.22;;;19.30;53.10;;;;;;5038202;28;20056;-48
2023/10/11 04:17:24;;;;;;;10.90;4.25;;;19.30;53.20;;;;;;5035381;28;20052;-47
2023/10/11 04:20:00;;;;;;;11.52;4.47;;;19.30;53.30;;;;;;5036361;28;20057;-44
2023/10/11 04:22:31;;;;;;;9.65;3.72;;;19.30;53.30;;;;;;5038222;28;20052;-47
2023/10/11 04:25:06;;;;;;;9.38;3.63;;;19.20;53.20;;;;;;5033906;28;20057;-49
2023/10/11 04:27:54;;;;;;;9.88;4.53;;;19.20;53.30;;;;;;5040060;28;20049;-47
2023/10/11 04:30:26;;;;;;;15.73;4.05;;;19.20;53.30;;;;;;5036214;28;20060;-46
2023/10/11 04:32:57;;;;;;;23.45;10.98;;;19.20;53.20;;;;;;5036557;28;20060;-48
2023/10/11 04:35:36;;;;;;;27.48;10.88;;;19.20;53.10;;;;;;5036176;28;20060;-47
2023/10/11 04:38:04;;;;;;;15.45;7.20;;;19.20;53.20;;;;;;5037201;28;20067;-46
2023/10/11 04:40:49;;;;;;;17.17;6.15;;;19.20;53.10;;;;;;5038044;28;20057;-48
2023/10/11 04:43:23;;;;;;;12.35;4.95;;;19.20;53.00;;;;;;5037691;28;20057;-47
2023/10/11 04:45:55;;;;;;;11.20;4.88;;;19.20;53.10;;;;;;5039795;28;20481;-47
2023/10/11 04:48:30;;;;;;;13.77;4.25;;;19.20;53.10;;;;;;5037545;28;20596;-48
2023/10/11 04:51:07;;;;;;;13.90;4.38;;;19.20;53.10;;;;;;5037060;28;20512;-46
2023/10/11 04:53:45;;;;;;;11.65;4.78;;;19.20;53.10;;;;;;5035822;28;20412;-48
2023/10/11 04:56:51;;;;;;;10.50;4.35;;;19.20;53.10;;;;;;5036126;28;20104;-45
2023/10/11 04:59:06;;;;;;;12.85;4.07;;;19.20;53.00;;;;;;5038237;28;20053;-49
2023/10/11 05:01:58;;;;;;;23.02;5.70;;;19.20;53.50;;;;;;5037036;28;20052;-48
2023/10/11 05:04:28;;;;;;;15.43;6.40;;;19.20;53.10;;;;;;5037143;28;20841;-47
2023/10/11 05:06:57;;;;;;;14.70;5.97;;;19.20;52.90;;;;;;5039402;28;20057;-47
2023/10/11 05:09:38;;;;;;;19.30;5.43;;;19.30;52.90;;;;;;5038689;28;20064;-45
2023/10/11 05:12:10;;;;;;;21.13;6.10;;;19.20;52.80;;;;;;5037115;28;20560;-48
2023/10/11 05:14:56;;;;;;;19.38;5.07;;;19.20;52.70;;;;;;5040052;28;20104;-47
2023/10/11 05:17:41;;;;;;;13.45;4.60;;;19.20;52.60;;;;;;5043429;28;20053;-46
2023/10/11 05:20:45;;;;;;;13.55;4.88;;;19.20;52.60;;;;;;5041196;28;20063;-49
2023/10/11 05:23:13;;;;;;;24.30;5.10;;;19.20;52.50;;;;;;5039948;28;20076;-48
2023/10/11 05:25:58;;;;;;;18.27;4.65;;;19.20;52.60;;;;;;5042823;28;20056;-50
2023/10/11 05:28:43;;;;;;;19.33;5.47;;;19.20;52.50;;;;;;5042183;28;20053;-45
2023/10/11 05:31:22;;;;;;;10.05;4.40;;;19.20;52.50;;;;;;5042178;28;20080;-44
2023/10/11 05:34:29;;;;;;;15.60;4.28;;;19.20;52.50;;;;;;5042243;28;20063;-46
2023/10/11 05:50:50;;;;;;;15.13;4.82;;;19.20;52.50;;;;;;5043433;28;20052;-46
2023/10/11 05:50:55;;;;;;;9.82;4.63;;;19.20;52.40;;;;;;5046200;28;20519;-46
2023/10/11 05:53:24;;;;;;;16.42;5.00;;;19.20;52.40;;;;;;5041705;28;20068;-47
2023/10/11 05:55:53;;;;;;;10.23;4.43;;;19.20;52.40;;;;;;5040162;28;20049;-47
2023/10/11 05:58:21;;;;;;;13.68;4.90;;;19.20;52.40;;;;;;5043499;28;20056;-47
2023/10/11 06:00:53;;;;;;;17.65;4.68;;;19.20;52.40;;;;;;5041249;28;20057;-46
2023/10/11 06:03:24;;;;;;;10.38;4.43;;;19.20;52.60;;;;;;5039512;28;20056;-45
2023/10/11 06:05:52;;;;;;;11.15;4.45;;;19.20;52.50;;;;;;5041739;28;20408;-45
2023/10/11 06:08:23;;;;;;;10.65;4.32;;;19.20;52.40;;;;;;5040836;28;20053;-46
2023/10/11 06:10:56;;;;;;;11.45;3.97;;;19.20;52.40;;;;;;5040466;28;20063;-47
2023/10/11 06:13:23;;;;;;;17.08;4.75;;;19.20;52.40;;;;;;5039871;28;20053;-46
2023/10/11 06:15:59;;;;;;;12.90;4.13;;;19.20;52.30;;;;;;5043172;28;20059;-43
2023/10/11 06:18:39;;;;;;;8.05;4.07;;;19.20;52.30;;;;;;5040147;28;20068;-46
2023/10/11 06:21:18;;;;;;;15.23;4.22;;;19.10;52.70;;;;;;5041463;28;20049;-48
2023/10/11 06:23:48;;;;;;;11.70;4.32;;;19.20;52.40;;;;;;5041440;28;20421;-49
2023/10/11 06:29:04;;;;;;;16.38;5.85;;;19.20;52.40;;;;;;5008342;28;20041;-42
2023/10/11 06:31:34;;;;;;;22.13;11.20;;;19.20;52.30;;;;;;5039224;28;20057;-45
2023/10/11 06:34:03;;;;;;;15.43;7.15;;;19.20;52.40;;;;;;5041357;28;20055;-42
2023/10/11 06:36:35;;;;;;;13.73;5.57;;;19.20;52.40;;;;;;5040835;28;20049;-43
2023/10/11 06:39:20;;;;;;;14.85;4.53;;;19.20;52.50;;;;;;5041616;28;20056;-44
2023/10/11 06:41:50;;;;;;;12.20;4.18;;;19.20;52.70;;;;;;5041098;28;20049;-46
2023/10/11 06:44:18;;;;;;;11.23;4.55;;;19.20;52.90;;;;;;5040697;28;20524;-43
2023/10/11 06:46:50;;;;;;;12.10;4.20;;;19.20;52.90;;;;;;5038560;28;20060;-43
2023/10/11 06:49:19;;;;;;;12.10;4.72;;;19.30;53.10;;;;;;5041997;28;20045;-44
2023/10/11 06:51:46;;;;;;;8.85;3.80;;;19.30;53.10;;;;;;5038797;28;20060;-46
2023/10/11 06:54:15;;;;;;;12.02;4.40;;;19.30;53.20;;;;;;5040945;28;20060;-44
2023/10/11 06:56:43;;;;;;;11.30;4.40;;;19.30;53.20;;;;;;5040845;28;20064;-43
2023/10/11 06:59:14;;;;;;;13.35;4.50;;;19.30;53.20;;;;;;5041311;28;20524;-44
2023/10/11 07:01:41;;;;;;;9.15;3.95;;;19.40;53.30;;;;;;5036684;28;20373;-47
2023/10/11 07:04:09;;;;;;;9.10;4.32;;;19.30;53.20;;;;;;5039106;28;20409;-43
2023/10/11 07:06:36;;;;;;;9.60;3.65;;;19.30;53.30;;;;;;5040265;28;20049;-42
2023/10/11 07:09:05;;;;;;;13.30;4.55;;;19.40;53.90;;;;;;5039455;28;20069;-45
2023/10/11 07:11:40;;;;;;;11.70;4.03;;;19.40;53.40;;;;;;5040034;28;20486;-46
2023/10/11 07:14:14;;;;;;;13.60;4.65;;;19.40;53.40;;;;;;5038545;28;20465;-44
2023/10/11 07:16:45;;;;;;;10.23;3.85;;;19.50;53.40;;;;;;5038087;28;20041;-44
2023/10/11 07:19:15;;;;;;;12.75;4.25;;;19.50;53.50;;;;;;5037560;28;20052;-47
2023/10/11 07:21:52;;;;;;;10.13;3.97;;;19.50;53.50;;;;;;5038192;28;20060;-46
2023/10/11 07:24:33;;;;;;;11.43;3.85;;;19.50;53.60;;;;;;5040682;28;20052;-45
2023/10/11 07:27:08;;;;;;;9.50;4.30;;;19.50;53.60;;;;;;5037769;28;20428;-47
2023/10/11 07:29:36;;;;;;;8.60;3.80;;;19.60;53.70;;;;;;5040089;28;20049;-49
2023/10/11 07:32:09;;;;;;;9.05;4.05;;;19.60;53.60;;;;;;5041375;28;20516;-47
2023/10/11 07:34:38;;;;;;;13.88;4.18;;;19.60;53.60;;;;;;5037791;28;20052;-45
2023/10/11 07:37:06;;;;;;;7.40;3.92;;;19.60;53.40;;;;;;5039046;28;20055;-47
2023/10/11 07:39:34;;;;;;;18.50;3.95;;;19.70;53.40;;;;;;5040912;28;20068;-46
2023/10/11 07:42:06;;;;;;;7.55;4.00;;;19.70;53.40;;;;;;5038957;28;20440;-48
2023/10/11 07:44:36;;;;;;;10.00;3.63;;;19.80;53.30;;;;;;5039402;28;20119;-46
2023/10/11 07:47:12;;;;;;;10.68;4.43;;;19.80;53.30;;;;;;5038888;28;20048;-46
2023/10/11 07:49:42;;;;;;;8.88;3.42;;;19.80;53.20;;;;;;5038248;28;20064;-48
2023/10/11 07:52:10;;;;;;;22.25;10.65;;;19.90;53.30;;;;;;5036260;28;20421;-47
2023/10/11 07:54:39;;;;;;;19.05;7.97;;;19.90;53.30;;;;;;5037092;28;20053;-46
2023/10/11 07:57:13;;;;;;;19.13;5.60;;;20.00;53.50;;;;;;5037828;28;20060;-46
2023/10/11 07:59:40;;;;;;;12.27;4.63;;;20.00;53.60;;;;;;5039458;28;20063;-47
2023/10/11 08:02:26;;;;;;;15.48;4.75;;;20.10;53.60;;;;;;5038881;28;20518;-44
2023/10/11 08:04:53;;;;;;;7.78;3.70;;;20.10;53.70;;;;;;5036393;28;20049;-44
2023/10/11 08:07:22;;;;;;;14.27;4.40;;;20.20;53.70;;;;;;5039000;28;20512;-46
2023/10/11 08:09:52;;;;;;;10.32;4.25;;;20.20;53.70;;;;;;5040203;28;20052;-49
2023/10/11 08:12:22;;;;;;;8.27;3.75;;;20.20;53.80;;;;;;5038525;28;20052;-45
2023/10/11 08:14:49;;;;;;;10.43;4.07;;;20.30;53.90;;;;;;5039773;28;20053;-44
2023/10/11 08:17:19;;;;;;;11.15;4.25;;;20.30;53.80;;;;;;5036650;28;20493;-47
2023/10/11 08:19:48;;;;;;;9.20;4.00;;;20.40;53.90;;;;;;5037977;28;20044;-44
2023/10/11 08:22:16;;;;;;;16.80;4.88;;;20.40;53.60;;;;;;5037293;28;20052;-46
2023/10/11 08:24:47;;;;;;;10.88;3.88;;;20.40;53.30;;;;;;5039747;28;20059;-47
2023/10/11 08:27:16;;;;;;;11.15;4.20;;;20.40;53.10;;;;;;5038189;28;20067;-46
2023/10/11 08:29:43;;;;;;;12.95;4.55;;;20.50;53.30;;;;;;5037178;28;20528;-47
2023/10/11 08:32:13;;;;;;;14.25;4.10;;;20.60;52.90;;;;;;5036645;28;20056;-47
2023/10/11 08:34:46;;;;;;;12.80;4.75;;;20.60;52.30;;;;;;5038506;28;20067;-48
2023/10/11 08:37:14;;;;;;;15.52;4.68;;;20.60;52.00;;;;;;5039170;28;20064;-45
2023/10/11 08:39:44;;;;;;;15.13;4.55;;;20.70;51.60;;;;;;5037622;28;20049;-45
2023/10/11 08:42:14;;;;;;;12.50;3.85;;;20.80;51.30;;;;;;5038948;28;20056;-46
2023/10/11 08:44:45;;;;;;;8.43;3.85;;;20.80;51.10;;;;;;5038921;28;20057;-45
2023/10/11 08:47:16;;;;;;;13.02;5.43;;;20.90;51.40;;;;;;5037589;28;20056;-48
2023/10/11 08:49:48;;;;;;;10.38;5.18;;;20.90;50.40;;;;;;5035223;28;20061;-44
2023/10/11 08:52:22;;;;;;;17.67;4.80;;;21.00;50.50;;;;;;5040252;28;20512;-46
2023/10/11 08:54:49;;;;;;;;;;;21.00;49.90;;;;;;5034503;28;20056;-46
2023/10/11 08:57:23;;;;;;;13.13;3.85;;;21.10;50.40;;;;;;5038779;28;19931;-45
2023/10/11 08:59:51;;;;;;;12.13;4.38;;;21.10;49.50;;;;;;5038532;28;20061;-49
2023/10/11 09:02:19;;;;;;;10.60;4.57;;;21.20;49.40;;;;;;5036508;28;20063;-48
2023/10/11 09:05:04;;;;;;;10.68;4.13;;;21.30;49.30;;;;;;5039404;28;20061;-46
2023/10/11 09:07:38;;;;;;;12.88;4.60;;;21.30;49.00;;;;;;5037446;28;20551;-48
2023/10/11 09:10:23;;;;;;;10.32;4.05;;;21.40;49.20;;;;;;5036767;28;20049;-46
2023/10/11 09:12:56;;;;;;;13.93;4.25;;;21.40;48.90;;;;;;5038468;28;20428;-48
2023/10/11 09:15:23;;;;;;;16.92;4.80;;;21.50;48.90;;;;;;5041900;28;20061;-45
2023/10/11 09:18:12;;;;;;;11.85;4.10;;;21.60;48.80;;;;;;5040406;28;20049;-44
2023/10/11 09:20:41;;;;;;;12.48;4.03;;;21.60;48.50;;;;;;5041259;28;20048;-45
2023/10/11 09:23:11;;;;;;;10.95;4.28;;;21.70;48.40;;;;;;5042268;28;20135;-45
2023/10/11 09:25:57;;;;;;;12.48;4.18;;;21.70;48.20;;;;;;5040392;28;20049;-44
2023/10/11 09:28:27;;;;;;;9.18;4.22;;;21.80;47.90;;;;;;5040946;28;20052;-45
2023/10/11 09:31:09;;;;;;;11.23;4.70;;;21.80;47.90;;;;;;5040208;28;20053;-44
2023/10/11 09:33:40;;;;;;;10.45;3.95;;;21.90;47.60;;;;;;5040220;28;20045;-47
2023/10/11 09:36:09;;;;;;;12.25;4.60;;;22.00;47.60;;;;;;5038665;28;20060;-49
2023/10/11 09:38:43;;;;;;;17.25;4.53;;;22.00;47.40;;;;;;5038698;28;20060;-47
2023/10/11 09:41:10;;;;;;;11.95;4.07;;;22.10;47.10;;;;;;5037075;28;20049;-46
2023/10/11 09:43:42;;;;;;;11.32;4.10;;;22.10;47.20;;;;;;5038044;28;20057;-40
2023/10/11 09:46:12;;;;;;;18.65;5.20;;;22.20;47.20;;;;;;5037226;28;20045;-45
2023/10/11 09:48:40;;;;;;;8.20;4.20;;;22.20;46.80;;;;;;5037825;28;20516;-44
2023/10/11 09:51:13;;;;;;;9.13;4.50;;;22.30;47.00;;;;;;5036628;28;20057;-43
2023/10/11 09:53:42;;;;;;;12.33;4.73;;;22.30;46.50;;;;;;5038485;28;20053;-41
2023/10/11 09:56:22;;;;;;;14.43;4.55;;;22.40;46.90;;;;;;5039451;28;20508;-43
2023/10/11 09:58:59;;;;;;;14.15;5.10;;;22.50;46.80;;;;;;5038459;28;20048;-46
2023/10/11 10:01:38;;;;;;;11.27;3.75;;;22.50;46.50;;;;;;5039800;28;20231;-41
2023/10/11 10:04:09;;;;;;;11.23;4.35;;;22.60;46.70;;;;;;5038993;28;20409;-44
2023/10/11 10:06:37;;;;;;;11.07;4.05;;;22.60;46.60;;;;;;5041031;28;20465;-41
2023/10/11 10:12:20;;;;;;;12.38;4.32;;;22.80;46.30;;;;;;5042524;28;20048;-46
2023/10/11 10:14:50;;;;;;;13.93;3.83;;;22.80;46.00;;;;;;5041421;28;20115;-45
2023/10/11 10:17:18;;;;;;;13.23;4.30;;;22.90;46.10;;;;;;5039037;28;20040;-46
2023/10/11 10:19:47;;;;;;;14.27;4.57;;;22.90;46.00;;;;;;5040380;28;20485;-41
2023/10/11 10:22:17;;;;;;;14.77;4.40;;;23.00;46.00;;;;;;5040892;28;20056;-44
2023/10/11 10:24:45;;;;;;;11.07;4.50;;;23.00;45.50;;;;;;5040800;28;20064;-43
2023/10/11 10:27:38;;;;;;;12.38;4.25;;;23.10;45.60;;;;;;5040421;28;20052;-43
2023/10/11 10:30:08;;;;;;;12.52;4.00;;;23.10;45.20;;;;;;5040879;28;20056;-42
2023/10/11 10:32:36;;;;;;;11.65;4.15;;;23.20;45.50;;;;;;5040820;28;20056;-45
2023/10/11 10:35:36;;;;;;;10.05;4.40;;;23.20;45.30;;;;;;5041411;28;20052;-44
2023/10/11 10:38:09;;;;;;;9.40;3.70;;;23.30;45.30;;;;;;5042401;28;20045;-47
2023/10/11 10:40:42;;;;;;;9.00;3.50;;;23.30;45.20;;;;;;5042153;28;20056;-43
2023/10/11 10:43:23;;;;;;;12.43;4.63;;;23.40;45.20;;;;;;5040786;28;20057;-45
2023/10/11 10:45:52;;;;;;;12.65;4.47;;;23.40;44.90;;;;;;5042083;28;20487;-42
2023/10/11 10:48:20;;;;;;;12.70;4.05;;;23.40;45.00;;;;;;5040657;28;20048;-45
2023/10/11 10:50:49;;;;;;;10.05;3.92;;;23.50;44.90;;;;;;5039529;28;20080;-42
2023/10/11 10:53:17;;;;;;;12.38;4.05;;;23.60;45.00;;;;;;5040835;28;20056;-47
2023/10/11 10:55:45;;;;;;;8.52;3.33;;;23.60;44.60;;;;;;5042538;28;20053;-49
2023/10/11 10:58:18;;;;;;;13.68;4.05;;;23.70;44.70;;;;;;5041505;28;20053;-49
2023/10/11 11:00:47;;;;;;;11.73;4.30;;;23.70;44.60;;;;;;5039462;28;20400;-44
2023/10/11 11:03:21;;;;;;;10.70;3.78;;;23.70;44.70;;;;;;5038367;28;20056;-49
2023/10/11 11:05:58;;;;;;;11.65;3.83;;;23.80;44.80;;;;;;5041205;28;20053;-45
2023/10/11 11:08:28;;;;;;;10.20;4.13;;;23.80;44.60;;;;;;5039267;28;20056;-48
2023/10/11 11:11:00;;;;;;;10.65;4.13;;;23.90;44.90;;;;;;5040238;28;20057;-46
2023/10/11 11:13:30;;;;;;;8.85;3.38;;;23.90;44.80;;;;;;5041250;28;20064;-48
2023/10/11 11:15:56;;;;;;;23.50;4.97;;;24.00;44.90;;;;;;5037639;28;20053;-49
2023/10/11 11:18:31;;;;;;;12.02;4.60;;;24.10;44.60;;;;;;5039033;28;20049;-46
2023/10/11 11:21:17;;;;;;;7.78;3.38;;;24.10;44.10;;;;;;5039103;28;20497;-48
2023/10/11 11:23:49;;;;;;;8.15;3.72;;;24.10;44.40;;;;;;5040825;28;20056;-48
2023/10/11 11:26:16;;;;;;;13.15;3.90;;;24.20;44.10;;;;;;5038492;28;20060;-50
2023/10/11 11:28:44;;;;;;;7.80;3.47;;;24.30;44.20;;;;;;5041159;28;20053;-47
2023/10/11 11:31:13;;;;;;;11.75;3.85;;;24.30;44.30;;;;;;5043268;28;20045;-44
2023/10/11 11:34:05;;;;;;;14.35;3.95;;;24.40;44.30;;;;;;5040011;28;20576;-48
2023/10/11 11:36:34;;;;;;;9.85;3.47;;;24.50;44.00;;;;;;5041961;28;20064;-50
2023/10/11 11:39:25;;;;;;;8.70;4.22;;;24.50;44.00;;;;;;5041124;28;20064;-44
2023/10/11 11:41:53;;;;;;;8.35;3.53;;;24.60;44.00;;;;;;5037543;28;20060;-45
2023/10/11 11:44:20;;;;;;;9.05;4.28;;;24.60;44.20;;;;;;5040875;28;20052;-49
2023/10/11 11:46:49;;;;;;;7.22;3.30;;;24.70;44.20;;;;;;5039543;28;20057;-46
2023/10/11 11:49:21;;;;;;;8.52;4.05;;;24.70;44.30;;;;;;5040119;28;20052;-48
2023/10/11 11:51:51;;;;;;;9.80;3.92;;;24.80;44.20;;;;;;5039801;28;20056;-47
2023/10/11 11:54:20;;;;;;;11.20;3.45;;;24.80;44.40;;;;;;5038882;28;20056;-49
2023/10/11 11:56:48;;;;;;;6.45;2.75;;;24.90;44.20;;;;;;5040618;28;20053;-48
2023/10/11 11:59:20;;;;;;;9.88;3.53;;;24.90;43.30;;;;;;5039536;28;20052;-47
2023/10/11 12:01:49;;;;;;;11.18;4.10;;;25.00;42.80;;;;;;5039339;28;20060;-45
2023/10/11 12:04:20;;;;;;;7.68;3.22;;;25.00;42.70;;;;;;5038532;28;20421;-47
2023/10/11 12:06:48;;;;;;;8.93;3.55;;;25.00;42.00;;;;;;5038009;28;20076;-46
2023/10/11 12:09:20;;;;;;;9.90;3.25;;;25.10;42.40;;;;;;5040624;28;20059;-48
2023/10/11 12:11:54;;;;;;;7.07;2.72;;;25.10;42.30;;;;;;5041105;28;20096;-49
2023/10/11 12:14:22;;;;;;;5.72;2.80;;;25.20;42.30;;;;;;5038786;28;20064;-47
2023/10/11 12:16:50;;;;;;;10.70;3.78;;;25.20;42.40;;;;;;5040797;28;20057;-46
2023/10/11 12:19:17;;;;;;;7.10;3.03;;;25.30;42.00;;;;;;5037142;28;20057;-46
2023/10/11 12:21:45;;;;;;;8.82;3.20;;;25.30;40.90;;;;;;5037343;28;20053;-44
2023/10/11 12:24:13;;;;;;;7.93;3.05;;;25.40;41.10;;;;;;5037449;28;20052;-48
2023/10/11 12:26:44;;;;;;;10.82;3.22;;;25.40;41.80;;;;;;5040882;28;20053;-49
2023/10/11 12:29:14;;;;;;;8.43;2.85;;;25.40;40.80;;;;;;5039131;28;20048;-45
2023/10/11 12:31:42;;;;;;;14.38;3.10;;;25.40;40.30;;;;;;5038095;28;20056;-46
2023/10/11 12:34:10;;;;;;;7.78;2.83;;;25.40;40.20;;;;;;5036581;28;20394;-45
2023/10/11 12:36:41;;;;;;;6.85;2.63;;;25.50;40.50;;;;;;5039863;28;20322;-48
2023/10/11 12:39:20;;;;;;;7.75;2.97;;;25.50;40.90;;;;;;5041025;28;20053;-47
2023/10/11 12:41:49;;;;;;;12.82;3.80;;;25.60;40.70;;;;;;5038347;28;20052;-46
2023/10/11 12:44:18;;;;;;;7.18;3.42;;;25.60;40.30;;;;;;5039933;28;20064;-46
2023/10/11 12:46:47;;;;;;;10.07;3.75;;;25.60;39.80;;;;;;5039063;28;20048;-47
2023/10/11 12:49:15;;;;;;;10.52;3.70;;;25.70;40.20;;;;;;5038227;28;20056;-47
2023/10/11 12:51:44;;;;;;;13.00;3.67;;;25.70;39.80;;;;;;5035719;28;20053;-47
2023/10/11 12:54:12;;;;;;;17.38;4.22;;;25.70;40.40;;;;;;5040984;28;20053;-47
2023/10/11 12:56:39;;;;;;;10.43;3.03;;;25.80;39.90;;;;;;5039600;28;20064;-50
2023/10/11 12:59:12;;;;;;;9.90;3.58;;;25.80;40.10;;;;;;5036609;28;20045;-45
2023/10/11 13:01:49;;;;;;;6.90;3.23;;;25.80;40.20;;;;;;5036665;28;20416;-46
2023/10/11 13:04:18;;;;;;;15.48;3.75;;;25.90;40.20;;;;;;5038378;28;20417;-46
2023/10/11 13:06:49;;;;;;;21.65;4.30;;;25.90;39.80;;;;;;5035782;28;20608;-49
2023/10/11 13:09:21;;;;;;;9.63;3.28;;;26.00;39.10;;;;;;5038703;28;20550;-47
2023/10/11 13:11:49;;;;;;;12.23;3.28;;;26.00;39.00;;;;;;5039176;28;20063;-49
2023/10/11 13:14:19;;;;;;;11.40;3.42;;;26.10;39.30;;;;;;5037919;28;20420;-50
2023/10/11 13:16:51;;;;;;;7.85;3.05;;;26.00;39.20;;;;;;5036075;28;20064;-49
2023/10/11 13:19:19;;;;;;;11.18;3.30;;;26.10;39.40;;;;;;5038415;28;20048;-50
2023/10/11 13:21:47;;;;;;;9.32;3.42;;;26.10;40.10;;;;;;5035873;28;20052;-49